Time;durP1;ratioP1;P1;durP2;ratioP2;P2;SDS_P1;SDS_P2;PMS_P1;PMS_P2;Temp;Humidity;BMP_temperature;BMP_pressure;BME280_temperature;BME280_humidity;BME280_pressure;Samples;Min_cycle;Max_cycle;Signal;HPM_P1;HPM_P2
2022/06/04 00:01:59;;;;;;;2.10;1.43;;;17.60;98.00;;;;;;5013274;28;20952;-68
2022/06/04 00:04:26;;;;;;;3.43;2.23;;;17.70;98.00;;;;;;5013309;28;20494;-68
2022/06/04 00:06:53;;;;;;;2.60;2.03;;;17.70;98.00;;;;;;5013462;28;20471;-68
2022/06/04 00:09:21;;;;;;;2.50;2.20;;;17.70;98.00;;;;;;5013535;28;20455;-68
2022/06/04 00:17:20;;;;;;;2.97;2.00;;;17.40;98.00;;;;;;5013498;28;20575;-69
2022/06/04 00:19:47;;;;;;;2.70;2.07;;;17.30;98.00;;;;;;5013333;28;20477;-69
2022/06/04 00:22:15;;;;;;;2.00;1.87;;;17.30;98.00;;;;;;5013344;28;20459;-68
2022/06/04 00:24:43;;;;;;;2.50;2.10;;;17.20;98.00;;;;;;5012111;28;20507;-68
2022/06/04 00:27:15;;;;;;;3.37;2.33;;;17.10;98.00;;;;;;5013406;28;20455;-68
2022/06/04 00:29:44;;;;;;;2.97;2.03;;;17.10;98.00;;;;;;5013534;28;20858;-68
2022/06/04 00:32:11;;;;;;;3.50;2.43;;;17.10;98.00;;;;;;5012036;28;20517;-68
2022/06/04 00:34:38;;;;;;;2.93;2.00;;;17.20;98.00;;;;;;5013185;28;20466;-68
2022/06/04 00:37:06;;;;;;;3.20;2.20;;;17.30;98.00;;;;;;5011731;28;20973;-69
2022/06/04 00:39:34;;;;;;;3.83;2.40;;;17.30;98.00;;;;;;5012935;28;20946;-69
2022/06/04 00:42:08;;;;;;;2.10;1.93;;;17.20;98.00;;;;;;5013051;28;20460;-68
2022/06/04 00:45:08;;;;;;;3.70;2.63;;;17.10;98.00;;;;;;5012647;28;20495;-68
2022/06/04 00:47:38;;;;;;;1.90;1.67;;;17.00;98.00;;;;;;5012477;28;20459;-68
2022/06/04 00:50:08;;;;;;;4.17;2.40;;;16.90;98.00;;;;;;5012585;28;21029;-68
2022/06/04 00:52:37;;;;;;;2.37;2.00;;;16.90;98.00;;;;;;5011598;28;20460;-69
2022/06/04 00:55:07;;;;;;;3.20;2.37;;;16.90;98.00;;;;;;5012286;28;20958;-68
2022/06/04 00:58:11;;;;;;;4.23;2.67;;;16.90;98.00;;;;;;5012718;28;20459;-69
2022/06/04 01:00:46;;;;;;;4.87;2.27;;;16.90;98.00;;;;;;4971013;28;20577;-68
2022/06/04 01:03:39;;;;;;;2.27;2.00;;;16.90;98.00;;;;;;5006781;28;20555;-69
2022/06/04 01:06:39;;;;;;;3.80;2.40;;;16.80;98.00;;;;;;5012353;28;20460;-68
2022/06/04 01:09:36;;;;;;;4.03;1.77;;;16.80;98.00;;;;;;5012351;28;20463;-69
2022/06/04 01:12:27;;;;;;;3.20;2.23;;;16.90;98.00;;;;;;5009117;28;20475;-67
2022/06/04 01:15:05;;;;;;;5.00;2.63;;;16.90;98.00;;;;;;5011631;28;20459;-67
2022/06/04 01:17:44;;;;;;;2.83;1.90;;;16.80;98.00;;;;;;5012550;28;20505;-69
2022/06/04 01:20:22;;;;;;;3.07;1.97;;;16.80;98.00;;;;;;5012469;28;20809;-68
2022/06/04 01:23:13;;;;;;;3.50;2.70;;;16.90;98.00;;;;;;5012432;28;20460;-68
2022/06/04 01:25:50;;;;;;;3.17;1.90;;;16.80;98.00;;;;;;5012559;28;20473;-68
2022/06/04 01:28:19;;;;;;;3.60;2.27;;;16.70;98.00;;;;;;5012474;28;20470;-68
2022/06/04 01:30:50;;;;;;;5.10;3.30;;;16.80;98.00;;;;;;5012380;28;20459;-68
2022/06/04 01:33:21;;;;;;;2.20;1.77;;;16.80;98.00;;;;;;5012604;28;20455;-68
2022/06/04 01:35:57;;;;;;;2.13;1.70;;;16.80;98.00;;;;;;5012294;28;20477;-67
2022/06/04 01:38:29;;;;;;;2.67;2.00;;;16.90;98.00;;;;;;5011997;28;20465;-68
2022/06/04 01:41:06;;;;;;;2.00;1.80;;;16.70;98.00;;;;;;5012085;28;20456;-67
2022/06/04 01:43:40;;;;;;;2.10;1.83;;;16.60;98.00;;;;;;5011876;28;20483;-69
2022/06/04 01:46:15;;;;;;;4.97;2.53;;;16.50;98.00;;;;;;5012087;28;20534;-68
2022/06/04 01:48:45;;;;;;;2.73;2.40;;;16.40;98.00;;;;;;5012215;28;20459;-67
2022/06/04 01:51:18;;;;;;;3.13;2.23;;;16.40;98.00;;;;;;5012181;28;20463;-68
2022/06/04 01:53:47;;;;;;;3.60;2.10;;;16.40;98.00;;;;;;5011996;28;20455;-69
2022/06/04 01:56:21;;;;;;;1.87;1.73;;;16.30;98.00;;;;;;5011674;28;20470;-68
2022/06/04 01:58:52;;;;;;;3.50;2.27;;;16.30;98.00;;;;;;5011906;28;20456;-68
2022/06/04 02:01:25;;;;;;;1.63;1.50;;;16.40;98.00;;;;;;5011958;28;20549;-68
2022/06/04 02:03:56;;;;;;;2.67;2.00;;;16.50;98.00;;;;;;5011742;28;20487;-68
2022/06/04 02:06:27;;;;;;;2.83;2.47;;;16.50;98.00;;;;;;5012209;28;20455;-67
2022/06/04 02:08:58;;;;;;;3.20;2.00;;;16.40;98.00;;;;;;5011896;28;20455;-68
2022/06/04 02:11:26;;;;;;;3.40;2.27;;;16.30;98.00;;;;;;5011383;28;20472;-68
2022/06/04 02:13:59;;;;;;;2.80;2.40;;;16.20;98.00;;;;;;5011637;28;20462;-68
2022/06/04 02:16:31;;;;;;;3.33;2.13;;;16.30;98.00;;;;;;5011895;28;20452;-68
2022/06/04 02:18:59;;;;;;;2.83;2.30;;;16.40;98.00;;;;;;5011753;28;20464;-68
2022/06/04 02:21:30;;;;;;;2.40;2.20;;;16.30;98.00;;;;;;5011896;28;20466;-68
2022/06/04 02:23:57;;;;;;;2.37;2.13;;;16.20;98.00;;;;;;5011749;28;20808;-68
2022/06/04 02:26:26;;;;;;;2.30;2.10;;;16.20;98.00;;;;;;5014365;28;20459;-68
2022/06/04 02:28:57;;;;;;;3.33;2.10;;;16.40;98.00;;;;;;5014150;28;20464;-68
2022/06/04 02:31:31;;;;;;;2.93;2.10;;;16.20;98.00;;;;;;5015685;28;20459;-68
2022/06/04 02:34:09;;;;;;;2.10;1.93;;;16.20;98.00;;;;;;5015273;28;20465;-68
2022/06/04 02:36:42;;;;;;;3.90;2.47;;;16.00;98.00;;;;;;5014300;28;20455;-68
2022/06/04 02:39:14;;;;;;;4.10;2.50;;;15.90;98.00;;;;;;5015275;28;20876;-69
2022/06/04 02:41:46;;;;;;;3.57;2.20;;;15.90;98.00;;;;;;5015178;28;21011;-69
2022/06/04 02:44:26;;;;;;;3.17;1.80;;;15.80;98.00;;;;;;5014787;28;20483;-68
2022/06/04 02:47:01;;;;;;;3.17;2.10;;;15.80;98.00;;;;;;5015061;28;20513;-68
2022/06/04 02:49:38;;;;;;;2.63;2.13;;;15.80;98.00;;;;;;5015031;28;20485;-68
2022/06/04 02:52:09;;;;;;;3.67;2.37;;;15.80;98.00;;;;;;5015061;28;20499;-68
2022/06/04 02:54:41;;;;;;;2.90;2.07;;;15.80;98.00;;;;;;5014842;28;20463;-68
2022/06/04 02:57:12;;;;;;;3.20;2.30;;;15.80;98.00;;;;;;5014855;28;20491;-68
2022/06/04 02:59:44;;;;;;;5.07;2.50;;;15.80;98.00;;;;;;5014884;28;20478;-68
2022/06/04 03:02:16;;;;;;;3.93;2.33;;;15.70;98.00;;;;;;5013651;28;20460;-68
2022/06/04 03:04:44;;;;;;;4.30;2.40;;;15.60;98.00;;;;;;5014657;28;20487;-68
2022/06/04 03:07:11;;;;;;;2.30;1.80;;;15.60;98.00;;;;;;5014891;28;20459;-68
2022/06/04 03:09:39;;;;;;;2.23;2.10;;;15.60;98.00;;;;;;5014464;28;20467;-67
2022/06/04 03:12:07;;;;;;;4.90;1.87;;;15.70;98.00;;;;;;5014588;28;20545;-68
2022/06/04 03:14:34;;;;;;;2.30;1.80;;;15.70;98.00;;;;;;5014439;28;21122;-68
2022/06/04 03:17:03;;;;;;;6.53;2.90;;;15.60;98.00;;;;;;5014516;28;20844;-68
2022/06/04 03:19:31;;;;;;;2.07;1.80;;;15.70;98.00;;;;;;5013196;28;20463;-67
2022/06/04 03:21:59;;;;;;;2.13;1.97;;;15.80;98.00;;;;;;5013356;28;20452;-67
2022/06/04 03:24:27;;;;;;;2.90;1.90;;;15.80;98.00;;;;;;5014491;28;20608;-69
2022/06/04 03:26:54;;;;;;;3.83;2.17;;;15.80;98.00;;;;;;5014374;28;20550;-67
2022/06/04 03:29:21;;;;;;;2.73;2.00;;;15.70;98.00;;;;;;5014212;28;20950;-67
2022/06/04 03:31:49;;;;;;;2.37;1.83;;;15.60;98.00;;;;;;5014538;28;20455;-68
2022/06/04 03:34:20;;;;;;;2.33;1.97;;;15.60;98.00;;;;;;5014213;28;20460;-68
2022/06/04 03:36:47;;;;;;;3.97;1.90;;;15.60;98.00;;;;;;5013704;28;20475;-67
2022/06/04 03:39:14;;;;;;;1.93;1.73;;;15.60;98.00;;;;;;5013804;28;20467;-67
2022/06/04 03:41:41;;;;;;;3.93;2.37;;;15.70;98.00;;;;;;5014071;28;20451;-68
2022/06/04 03:44:08;;;;;;;2.03;1.93;;;15.70;98.00;;;;;;5013664;28;20491;-68
2022/06/04 03:46:36;;;;;;;2.10;1.80;;;15.70;98.00;;;;;;5014009;28;20449;-68
2022/06/04 03:49:03;;;;;;;2.60;2.07;;;15.70;98.00;;;;;;5012693;28;20950;-68
2022/06/04 03:51:39;;;;;;;2.07;1.60;;;15.70;98.00;;;;;;5013849;28;20455;-68
2022/06/04 03:54:07;;;;;;;2.70;1.73;;;15.80;98.00;;;;;;5012442;28;20474;-68
2022/06/04 03:56:35;;;;;;;2.20;1.80;;;15.90;98.00;;;;;;5013776;28;20455;-68
2022/06/04 03:59:02;;;;;;;3.00;2.03;;;15.90;98.00;;;;;;5013999;28;20486;-68
2022/06/04 04:01:30;;;;;;;2.37;1.80;;;16.00;98.00;;;;;;5013797;28;20463;-68
2022/06/04 04:04:01;;;;;;;2.60;1.93;;;16.10;98.00;;;;;;5013554;28;20459;-68
2022/06/04 04:06:33;;;;;;;2.20;2.00;;;16.10;98.00;;;;;;5013546;28;20470;-68
2022/06/04 04:09:00;;;;;;;2.83;2.13;;;16.20;98.00;;;;;;5013413;28;20455;-68
2022/06/04 04:11:29;;;;;;;3.70;2.03;;;16.20;98.00;;;;;;5013344;28;20918;-67
2022/06/04 04:13:57;;;;;;;3.33;2.10;;;16.20;98.00;;;;;;5013377;28;20456;-67
2022/06/04 04:16:24;;;;;;;1.50;1.50;;;16.20;98.00;;;;;;5012237;28;20970;-68
2022/06/04 04:18:52;;;;;;;4.50;2.00;;;16.20;98.00;;;;;;5013417;28;20463;-67
2022/06/04 04:21:21;;;;;;;3.63;2.10;;;16.20;98.00;;;;;;5013487;28;20456;-68
2022/06/04 04:23:50;;;;;;;1.80;1.57;;;16.30;98.00;;;;;;5013401;28;20455;-68
2022/06/04 04:26:17;;;;;;;2.57;1.70;;;16.40;98.00;;;;;;5013138;28;21009;-68
2022/06/04 04:28:44;;;;;;;3.20;2.50;;;16.50;98.00;;;;;;5013279;28;20468;-68
2022/06/04 04:31:12;;;;;;;3.03;1.97;;;16.60;98.00;;;;;;5013285;28;20455;-68
2022/06/04 04:33:40;;;;;;;2.50;2.33;;;16.60;98.00;;;;;;5012884;28;20486;-68
2022/06/04 04:36:08;;;;;;;3.27;2.30;;;16.60;98.00;;;;;;5013103;28;20505;-68
2022/06/04 04:38:36;;;;;;;3.17;2.00;;;16.60;98.00;;;;;;5013267;28;20866;-69
2022/06/04 04:41:09;;;;;;;2.10;1.80;;;16.60;98.00;;;;;;5012620;28;20455;-68
2022/06/04 04:43:36;;;;;;;2.77;1.93;;;16.50;98.00;;;;;;5012823;28;20456;-67
2022/06/04 04:46:04;;;;;;;3.67;2.40;;;16.50;98.00;;;;;;5012601;28;20483;-68
2022/06/04 04:48:32;;;;;;;3.47;2.00;;;16.40;98.00;;;;;;5012702;28;20479;-67
2022/06/04 04:50:59;;;;;;;3.17;2.10;;;16.30;98.00;;;;;;5012633;28;20456;-68
2022/06/04 04:53:27;;;;;;;2.77;1.80;;;16.40;98.00;;;;;;5012990;28;20454;-68
2022/06/04 04:55:55;;;;;;;2.30;1.70;;;16.60;98.00;;;;;;5012455;28;20486;-68
2022/06/04 04:58:23;;;;;;;2.07;1.70;;;16.80;98.00;;;;;;5012591;28;20472;-68
2022/06/04 05:00:50;;;;;;;2.80;1.80;;;17.00;98.00;;;;;;5012709;28;20464;-68
2022/06/04 05:03:17;;;;;;;2.83;2.13;;;17.10;98.00;;;;;;5012651;28;20464;-68
2022/06/04 05:05:45;;;;;;;2.40;1.80;;;17.10;98.00;;;;;;5012527;28;20487;-67
2022/06/04 05:08:12;;;;;;;2.50;1.80;;;17.10;98.00;;;;;;5012657;28;20463;-67
2022/06/04 05:10:39;;;;;;;4.43;2.47;;;17.30;98.00;;;;;;5012436;28;20452;-68
2022/06/04 05:13:07;;;;;;;3.23;2.20;;;17.50;98.00;;;;;;5011274;28;20520;-68
2022/06/04 05:15:35;;;;;;;3.60;2.17;;;17.60;98.00;;;;;;5012753;28;20451;-68
2022/06/04 05:18:02;;;;;;;4.47;2.33;;;17.90;98.00;;;;;;5012512;28;20456;-68
2022/06/04 05:20:29;;;;;;;3.93;2.40;;;17.90;98.00;;;;;;5011266;28;20485;-68
2022/06/04 05:22:58;;;;;;;3.30;1.77;;;18.00;98.00;;;;;;5012485;28;20491;-68
2022/06/04 05:25:25;;;;;;;2.83;2.17;;;18.10;98.00;;;;;;5012218;28;20836;-69
2022/06/04 05:27:52;;;;;;;2.83;2.47;;;18.20;98.00;;;;;;5012338;28;21108;-68
2022/06/04 05:30:19;;;;;;;4.00;2.00;;;18.20;98.00;;;;;;5012454;28;20463;-69
2022/06/04 05:32:49;;;;;;;3.47;2.30;;;18.20;98.00;;;;;;5012513;28;20527;-67
2022/06/04 05:35:16;;;;;;;3.17;2.40;;;18.10;98.00;;;;;;5012222;28;20456;-67
2022/06/04 05:37:43;;;;;;;3.53;2.40;;;18.10;98.00;;;;;;5010850;28;20946;-67
2022/06/04 05:40:11;;;;;;;1.97;1.80;;;18.00;98.00;;;;;;5012150;28;20462;-68
2022/06/04 05:42:38;;;;;;;2.67;1.83;;;18.10;98.00;;;;;;5011892;28;20960;-68
2022/06/04 05:45:07;;;;;;;2.53;2.13;;;18.10;98.00;;;;;;5011888;28;20483;-69
2022/06/04 05:47:34;;;;;;;3.00;1.90;;;18.00;98.00;;;;;;5011995;28;20464;-67
2022/06/04 05:50:03;;;;;;;3.10;2.47;;;18.00;98.00;;;;;;5010704;28;20469;-68
2022/06/04 05:52:30;;;;;;;3.73;2.20;;;18.10;98.00;;;;;;5011940;28;20463;-67
2022/06/04 05:54:57;;;;;;;6.27;2.90;;;18.00;98.00;;;;;;5011682;28;20475;-68
2022/06/04 05:57:25;;;;;;;4.03;2.53;;;18.10;98.00;;;;;;5012104;28;20470;-69
2022/06/04 05:59:52;;;;;;;2.83;1.73;;;18.10;98.00;;;;;;5012032;28;20897;-68
2022/06/04 06:02:19;;;;;;;4.27;2.63;;;18.20;98.00;;;;;;5015818;28;20546;-67
2022/06/04 06:04:46;;;;;;;2.70;2.13;;;18.30;98.00;;;;;;4998214;28;20513;-68
2022/06/04 06:07:15;;;;;;;4.13;2.47;;;18.40;98.00;;;;;;5015758;28;20459;-69
2022/06/04 06:09:42;;;;;;;2.13;1.70;;;18.40;98.00;;;;;;5015625;28;20455;-67
2022/06/04 06:12:11;;;;;;;2.10;1.97;;;18.50;98.00;;;;;;5015662;28;20458;-68
2022/06/04 06:14:38;;;;;;;5.53;2.60;;;18.40;98.00;;;;;;4998008;28;20459;-68
2022/06/04 06:17:05;;;;;;;4.40;2.53;;;18.30;98.00;;;;;;5014854;28;20459;-68
2022/06/04 06:19:32;;;;;;;2.77;2.30;;;18.40;98.00;;;;;;5014775;28;20467;-68
2022/06/04 06:21:59;;;;;;;3.27;2.37;;;18.50;98.00;;;;;;5014774;28;20602;-68
2022/06/04 06:24:28;;;;;;;5.00;2.53;;;18.60;98.00;;;;;;5014882;28;20915;-67
2022/06/04 06:26:58;;;;;;;2.40;2.03;;;18.60;98.00;;;;;;5014605;28;20487;-69
2022/06/04 06:29:27;;;;;;;2.37;2.10;;;18.60;98.00;;;;;;5015700;28;20467;-68
2022/06/04 06:31:56;;;;;;;3.67;2.27;;;18.60;98.00;;;;;;5015566;28;20481;-69
2022/06/04 06:34:25;;;;;;;3.67;2.10;;;18.70;98.00;;;;;;5015631;28;20456;-68
2022/06/04 06:36:52;;;;;;;2.53;1.93;;;18.70;98.00;;;;;;5015105;28;20467;-67
2022/06/04 06:39:20;;;;;;;2.40;1.90;;;18.70;98.00;;;;;;5014891;28;20464;-67
2022/06/04 06:41:48;;;;;;;3.43;2.33;;;18.80;98.00;;;;;;5015069;28;20950;-66
2022/06/04 06:44:16;;;;;;;4.40;1.80;;;18.80;98.00;;;;;;5015090;28;20480;-67
2022/06/04 06:46:46;;;;;;;3.20;2.03;;;18.80;98.00;;;;;;5014656;28;20487;-67
2022/06/04 06:49:17;;;;;;;2.70;2.33;;;18.80;98.00;;;;;;5014791;28;20458;-67
2022/06/04 06:51:47;;;;;;;3.40;2.20;;;18.80;98.00;;;;;;5014977;28;20455;-66
2022/06/04 06:54:15;;;;;;;3.13;2.80;;;18.90;98.00;;;;;;5014797;28;20710;-67
2022/06/04 06:56:44;;;;;;;2.90;1.97;;;18.80;98.00;;;;;;5014828;28;21110;-67
2022/06/04 06:59:13;;;;;;;3.83;2.00;;;18.80;98.00;;;;;;5014717;28;20456;-67
2022/06/04 07:01:42;;;;;;;2.83;2.17;;;18.70;98.00;;;;;;5014605;28;20470;-67
2022/06/04 07:04:10;;;;;;;2.90;2.40;;;18.70;98.00;;;;;;5014675;28;20462;-67
2022/06/04 07:06:40;;;;;;;2.13;1.90;;;18.70;98.00;;;;;;5014345;28;20479;-67
2022/06/04 07:09:13;;;;;;;2.83;2.10;;;18.60;98.00;;;;;;5014472;28;20455;-67
2022/06/04 07:11:40;;;;;;;2.13;1.90;;;18.60;98.00;;;;;;5013380;28;20459;-67
2022/06/04 07:14:08;;;;;;;2.67;2.10;;;18.60;98.00;;;;;;5014585;28;20486;-66
2022/06/04 07:16:37;;;;;;;2.80;1.90;;;18.60;98.00;;;;;;5013413;28;20467;-67
2022/06/04 07:19:08;;;;;;;2.83;2.13;;;18.60;98.00;;;;;;5014526;28;20458;-67
2022/06/04 07:21:36;;;;;;;3.87;2.37;;;18.60;98.00;;;;;;5014411;28;20961;-68
2022/06/04 07:24:03;;;;;;;2.90;2.33;;;18.70;98.00;;;;;;5014554;28;20459;-68
2022/06/04 07:26:31;;;;;;;2.33;2.07;;;18.80;98.00;;;;;;5014388;28;20484;-67
2022/06/04 07:28:58;;;;;;;3.83;2.77;;;18.90;98.00;;;;;;5014639;28;20455;-67
2022/06/04 07:31:25;;;;;;;2.83;2.00;;;19.00;98.00;;;;;;5014160;28;20466;-67
2022/06/04 07:33:56;;;;;;;2.37;2.07;;;19.20;98.00;;;;;;5014287;28;20456;-67
2022/06/04 07:36:29;;;;;;;3.10;2.20;;;19.30;98.00;;;;;;5014032;28;20451;-68
2022/06/04 07:38:57;;;;;;;3.50;2.40;;;19.40;98.00;;;;;;5014095;28;20466;-66
2022/06/04 07:41:26;;;;;;;4.73;2.50;;;19.50;98.00;;;;;;5013839;28;20466;-67
2022/06/04 07:43:54;;;;;;;4.17;3.03;;;19.60;98.00;;;;;;5014181;28;20452;-67
2022/06/04 07:46:23;;;;;;;3.90;2.27;;;19.60;98.00;;;;;;5012403;28;20487;-67
2022/06/04 07:48:51;;;;;;;5.77;2.23;;;19.70;98.00;;;;;;5013911;28;20470;-67
2022/06/04 07:51:19;;;;;;;2.53;2.07;;;19.60;98.00;;;;;;5013749;28;20772;-67
2022/06/04 07:53:46;;;;;;;4.57;2.67;;;19.50;98.00;;;;;;5009992;28;20460;-69
2022/06/04 07:56:18;;;;;;;2.40;2.30;;;19.60;98.00;;;;;;5011085;28;20886;-68
2022/06/04 07:58:47;;;;;;;2.70;2.00;;;19.60;98.00;;;;;;5011148;28;20470;-67
2022/06/04 08:01:16;;;;;;;2.97;2.60;;;19.60;98.00;;;;;;5010956;28;20462;-68
2022/06/04 08:03:47;;;;;;;9.17;2.80;;;19.80;98.00;;;;;;5010891;28;20460;-68
2022/06/04 08:06:17;;;;;;;4.23;2.13;;;20.00;98.00;;;;;;5010902;28;21286;-68
2022/06/04 08:08:47;;;;;;;2.33;1.97;;;20.10;98.00;;;;;;5011047;28;20917;-67
2022/06/04 08:11:35;;;;;;;2.27;1.80;;;20.20;98.00;;;;;;5012607;28;20856;-68
2022/06/04 08:14:08;;;;;;;7.40;2.30;;;20.30;98.00;;;;;;5013084;28;20451;-67
2022/06/04 08:16:37;;;;;;;2.93;2.50;;;20.40;98.00;;;;;;5013107;28;20459;-68
2022/06/04 08:19:05;;;;;;;6.83;3.10;;;20.50;98.00;;;;;;5013270;28;20463;-68
2022/06/04 08:21:33;;;;;;;4.50;2.77;;;20.50;98.00;;;;;;5012982;28;20805;-68
2022/06/04 08:24:02;;;;;;;3.67;2.60;;;20.50;98.00;;;;;;5012252;28;20516;-68
2022/06/04 08:26:29;;;;;;;4.50;2.77;;;20.60;98.00;;;;;;5012432;28;21091;-68
2022/06/04 08:28:56;;;;;;;2.63;2.30;;;20.70;98.00;;;;;;5012478;28;20459;-67
2022/06/04 08:31:23;;;;;;;3.43;2.50;;;21.00;98.00;;;;;;5012515;28;20992;-68
2022/06/04 08:33:50;;;;;;;4.03;3.00;;;21.20;98.00;;;;;;5012844;28;20467;-68
2022/06/04 08:36:19;;;;;;;4.93;3.10;;;21.30;98.00;;;;;;5012357;28;20451;-68
2022/06/04 08:38:51;;;;;;;3.57;3.03;;;21.30;98.00;;;;;;5012381;28;20817;-67
2022/06/04 08:41:36;;;;;;;3.77;2.77;;;21.30;98.00;;;;;;5012255;28;20508;-67
2022/06/04 08:44:09;;;;;;;2.70;2.00;;;21.50;98.00;;;;;;5012187;28;20463;-67
2022/06/04 08:46:43;;;;;;;3.93;3.13;;;21.70;98.00;;;;;;5012574;28;20487;-67
2022/06/04 08:49:17;;;;;;;2.50;2.10;;;21.80;98.00;;;;;;5010951;28;20547;-68
2022/06/04 08:51:46;;;;;;;4.07;2.43;;;22.00;98.00;;;;;;5011899;28;20521;-68
2022/06/04 08:59:57;;;;;;;3.60;2.43;;;22.40;98.00;;;;;;5011993;28;20450;-68
2022/06/04 09:02:32;;;;;;;4.23;2.57;;;22.40;98.00;;;;;;5011935;28;20459;-68
2022/06/04 09:05:05;;;;;;;3.93;2.93;;;22.60;98.00;;;;;;5011621;28;20517;-68
2022/06/04 09:07:38;;;;;;;3.47;2.50;;;22.70;98.00;;;;;;5011658;28;20541;-68
2022/06/04 09:10:13;;;;;;;4.77;3.00;;;22.70;98.00;;;;;;5011416;28;20464;-68
2022/06/04 09:12:45;;;;;;;3.93;2.83;;;22.90;98.00;;;;;;5009999;28;20466;-68
2022/06/04 09:15:18;;;;;;;4.10;2.87;;;23.10;98.00;;;;;;5011502;28;20491;-68
2022/06/04 09:17:47;;;;;;;4.13;2.90;;;23.20;98.00;;;;;;5011675;28;20541;-67
2022/06/04 09:20:27;;;;;;;3.70;2.80;;;23.50;98.00;;;;;;5011643;28;20965;-68
2022/06/04 09:23:00;;;;;;;4.00;2.57;;;23.80;98.00;;;;;;5011649;28;20816;-68
2022/06/04 09:25:38;;;;;;;4.70;3.10;;;24.10;98.00;;;;;;5011759;28;20459;-68
2022/06/04 09:28:21;;;;;;;7.07;2.90;;;24.30;98.00;;;;;;5011834;28;20467;-68
2022/06/04 09:30:58;;;;;;;4.33;2.80;;;24.20;98.00;;;;;;5011667;28;20459;-68
2022/06/04 09:33:49;;;;;;;5.10;2.93;;;24.20;98.00;;;;;;5011734;28;20470;-68
2022/06/04 09:36:19;;;;;;;3.77;2.63;;;24.20;98.00;;;;;;5010761;28;20468;-68
2022/06/04 09:38:54;;;;;;;5.10;2.90;;;24.20;98.00;;;;;;5011470;28;20805;-68
2022/06/04 09:41:23;;;;;;;3.57;2.57;;;24.20;98.00;;;;;;5011545;28;20965;-68
2022/06/04 09:44:04;;;;;;;4.30;2.93;;;24.10;98.00;;;;;;5011088;28;20479;-68
2022/06/04 09:46:31;;;;;;;5.30;2.90;;;24.10;98.00;;;;;;5011408;28;20495;-68
2022/06/04 09:49:01;;;;;;;5.60;3.17;;;24.00;98.00;;;;;;5011222;28;20460;-68
2022/06/04 09:51:31;;;;;;;5.30;3.10;;;24.10;98.00;;;;;;5011536;28;20813;-67
2022/06/04 09:54:03;;;;;;;4.47;2.70;;;24.50;98.00;;;;;;5010801;28;20475;-68
2022/06/04 09:56:33;;;;;;;3.60;2.63;;;24.80;98.00;;;;;;5011331;28;20459;-68
2022/06/04 09:59:18;;;;;;;3.47;2.53;;;24.90;98.00;;;;;;5011126;28;20459;-68
2022/06/04 10:01:53;;;;;;;4.83;3.30;;;24.80;98.00;;;;;;5011281;28;20779;-67
2022/06/04 10:04:21;;;;;;;4.33;2.63;;;24.70;98.00;;;;;;5011361;28;20458;-68
2022/06/04 10:06:48;;;;;;;5.67;3.00;;;24.80;98.00;;;;;;5011104;28;20486;-68
2022/06/04 10:12:06;;;;;;;6.27;3.07;;;25.10;98.00;;;;;;5011313;28;20854;-68
2022/06/04 10:14:37;;;;;;;4.47;3.03;;;25.00;98.00;;;;;;5011377;28;20521;-68
2022/06/04 10:17:06;;;;;;;3.97;2.63;;;24.60;98.00;;;;;;5010121;28;20474;-68
2022/06/04 10:19:35;;;;;;;5.40;3.40;;;24.30;98.00;;;;;;5009858;28;20456;-68
2022/06/04 10:22:06;;;;;;;5.03;3.60;;;24.10;98.00;;;;;;5011082;28;20456;-68
2022/06/04 10:24:42;;;;;;;8.00;3.80;;;24.00;98.00;;;;;;5011257;28;20463;-68
2022/06/04 10:27:22;;;;;;;4.00;3.03;;;23.70;98.00;;;;;;5011105;28;20525;-68
2022/06/04 10:30:09;;;;;;;5.00;3.03;;;23.60;98.00;;;;;;5011153;28;20968;-68
2022/06/04 10:32:49;;;;;;;5.57;3.70;;;23.50;98.00;;;;;;5011443;28;20455;-68
2022/06/04 10:35:20;;;;;;;5.77;3.33;;;23.40;98.00;;;;;;5010267;28;20824;-68
2022/06/04 10:38:03;;;;;;;4.33;2.90;;;23.30;98.00;;;;;;5011180;28;20462;-68
2022/06/04 10:40:41;;;;;;;6.20;3.40;;;23.20;98.00;;;;;;5009799;28;20471;-68
2022/06/04 10:43:22;;;;;;;6.00;3.17;;;23.20;98.00;;;;;;5010896;28;20492;-68
2022/06/04 10:45:55;;;;;;;3.60;3.20;;;23.20;98.00;;;;;;5009655;28;20455;-68
2022/06/04 10:48:38;;;;;;;4.93;3.27;;;23.20;98.00;;;;;;5013939;28;20869;-67
2022/06/04 10:51:28;;;;;;;4.90;3.47;;;23.00;98.00;;;;;;5014732;28;20455;-67
2022/06/04 10:54:08;;;;;;;6.13;3.37;;;22.90;98.00;;;;;;5014756;28;20483;-67
2022/06/04 10:56:41;;;;;;;5.50;3.43;;;22.90;98.00;;;;;;5015146;28;20484;-67
2022/06/04 10:59:19;;;;;;;5.43;3.97;;;22.70;98.00;;;;;;5014908;28;20459;-67
2022/06/04 11:01:53;;;;;;;6.60;3.73;;;22.50;98.00;;;;;;5014831;28;20502;-67
2022/06/04 11:04:29;;;;;;;7.50;4.83;;;22.40;98.00;;;;;;5015151;28;20462;-67
2022/06/04 11:07:01;;;;;;;9.70;4.40;;;22.30;98.00;;;;;;5014760;28;20537;-67
2022/06/04 11:09:36;;;;;;;7.67;4.10;;;22.30;98.00;;;;;;5014787;28;20476;-67
2022/06/04 11:12:14;;;;;;;7.30;4.53;;;22.20;98.00;;;;;;5014520;28;20463;-67
2022/06/04 11:14:46;;;;;;;9.20;4.53;;;22.10;98.00;;;;;;5014574;28;20466;-67
2022/06/04 11:17:21;;;;;;;7.00;3.97;;;21.90;98.00;;;;;;5014294;28;20455;-66
2022/06/04 11:19:59;;;;;;;6.37;4.50;;;21.90;98.00;;;;;;5014380;28;20459;-67
2022/06/04 11:22:33;;;;;;;9.53;4.57;;;21.90;98.00;;;;;;5014426;28;20486;-66
2022/06/04 11:25:04;;;;;;;7.57;4.60;;;21.90;98.00;;;;;;5013032;28;20463;-67
2022/06/04 11:27:37;;;;;;;6.57;4.33;;;21.60;98.00;;;;;;5014416;28;20489;-67
2022/06/04 11:30:13;;;;;;;7.10;4.63;;;21.70;98.00;;;;;;5014265;28;20467;-67
2022/06/04 11:32:53;;;;;;;8.43;4.53;;;21.70;98.00;;;;;;5014448;28;20510;-67
2022/06/04 11:35:34;;;;;;;6.93;4.27;;;21.80;98.00;;;;;;5014285;28;20458;-66
2022/06/04 11:38:22;;;;;;;8.93;4.60;;;21.80;98.00;;;;;;5014339;28;20451;-67
2022/06/04 11:40:57;;;;;;;4.53;3.40;;;21.80;98.00;;;;;;5013671;28;20464;-67
2022/06/04 11:43:40;;;;;;;10.23;4.60;;;21.80;98.00;;;;;;5014267;28;20451;-67
2022/06/04 11:46:20;;;;;;;6.33;3.77;;;21.90;98.00;;;;;;5013559;28;20482;-66
2022/06/04 11:49:05;;;;;;;7.40;4.43;;;22.00;98.00;;;;;;5013946;28;20459;-67
2022/06/04 11:51:53;;;;;;;6.67;4.40;;;22.10;98.00;;;;;;5012170;28;20456;-67
2022/06/04 11:54:33;;;;;;;9.03;4.47;;;22.20;98.00;;;;;;5013569;28;20470;-66
2022/06/04 11:57:10;;;;;;;9.00;4.00;;;22.10;98.00;;;;;;5012813;28;20455;-67
2022/06/04 11:59:52;;;;;;;5.83;3.77;;;22.20;98.00;;;;;;5013208;28;20455;-66
2022/06/04 12:02:27;;;;;;;7.23;4.00;;;22.40;98.00;;;;;;5012400;28;20489;-66
2022/06/04 12:05:08;;;;;;;8.87;5.00;;;22.50;98.00;;;;;;5013757;28;20459;-67
2022/06/04 12:07:40;;;;;;;6.63;4.43;;;22.80;98.00;;;;;;5013477;28;20833;-66
2022/06/04 12:10:21;;;;;;;6.30;4.00;;;23.10;98.00;;;;;;5013631;28;20487;-67
2022/06/04 12:13:00;;;;;;;6.27;3.37;;;23.40;98.00;;;;;;5013405;28;20450;-66
2022/06/04 12:15:39;;;;;;;5.00;3.53;;;23.30;98.00;;;;;;5013329;28;20518;-67
2022/06/04 12:18:21;;;;;;;4.97;3.70;;;23.40;98.00;;;;;;5012213;28;20463;-67
2022/06/04 12:26:30;;;;;;;5.90;3.53;;;23.20;98.00;;;;;;5013540;28;20493;-67
2022/06/04 12:28:58;;;;;;;8.63;3.90;;;23.20;98.00;;;;;;5013233;28;20460;-66
2022/06/04 12:31:37;;;;;;;4.43;3.17;;;23.20;98.00;;;;;;5013274;28;20495;-67
2022/06/04 12:34:06;;;;;;;5.53;3.27;;;23.40;98.00;;;;;;5013163;28;20495;-68
2022/06/04 12:36:37;;;;;;;5.60;3.30;;;23.60;98.00;;;;;;5013153;28;20467;-67
2022/06/04 12:39:07;;;;;;;4.53;3.30;;;23.60;98.00;;;;;;5013139;28;20459;-67
2022/06/04 12:41:46;;;;;;;6.27;3.67;;;23.60;98.00;;;;;;5012786;28;20475;-70
2022/06/04 12:44:22;;;;;;;5.80;3.20;;;23.50;98.00;;;;;;5013164;28;20477;-70
2022/06/04 12:46:52;;;;;;;5.07;3.50;;;23.50;98.00;;;;;;5012576;28;20949;-70
2022/06/04 12:49:39;;;;;;;5.43;3.37;;;23.50;98.00;;;;;;5012765;28;20729;-70
2022/06/04 12:52:23;;;;;;;6.60;3.80;;;23.50;98.00;;;;;;5011382;28;20470;-71
2022/06/04 12:54:54;;;;;;;5.23;3.30;;;23.40;98.00;;;;;;5012590;28;20475;-71
2022/06/04 12:57:45;;;;;;;5.10;3.37;;;23.50;98.00;;;;;;5012687;28;20466;-71
2022/06/04 13:00:36;;;;;;;5.10;3.30;;;23.70;98.00;;;;;;5012631;28;20474;-71
2022/06/04 13:03:39;;;;;;;6.07;3.10;;;24.10;98.00;;;;;;5012621;28;20509;-72
2022/06/04 13:06:28;;;;;;;6.37;3.90;;;24.50;98.00;;;;;;5012552;28;20459;-71
2022/06/04 13:09:05;;;;;;;6.80;3.93;;;25.00;98.00;;;;;;5012310;28;20497;-71
2022/06/04 13:11:59;;;;;;;6.67;3.90;;;25.60;98.00;;;;;;5011991;28;20459;-71
2022/06/04 13:14:39;;;;;;;5.03;3.20;;;26.20;98.00;;;;;;5010222;28;20475;-70
2022/06/04 13:17:27;;;;;;;10.50;4.93;;;26.70;98.00;;;;;;5012475;28;20854;-70
2022/06/04 13:20:11;;;;;;;8.63;4.50;;;26.80;98.00;;;;;;5012459;28;20880;-70
2022/06/04 13:22:44;;;;;;;5.37;3.57;;;27.40;98.00;;;;;;5012512;28;20467;-70
2022/06/04 13:25:18;;;;;;;6.77;3.93;;;27.90;98.00;;;;;;5012380;28;20494;-71
2022/06/04 13:27:53;;;;;;;11.03;4.50;;;28.20;98.00;;;;;;5032174;28;20588;-71
2022/06/04 13:30:23;;;;;;;7.50;3.70;;;28.60;98.00;;;;;;5032206;28;20474;-71
2022/06/04 13:32:57;;;;;;;7.00;3.87;;;28.70;98.00;;;;;;5032315;28;20469;-63